女満別空港の過去48時間の天気

女満別空港 (Memanbetsu)

現在時刻: 7/17 18:30 JST (7/17 09:30 UTC) 以下の時間は現地時間です。

過去48時間のMETAR気象情報
時間 風向 風速(m/s) 視程 気温(℃) 湿度(%) 気圧(hPa) 天気現象
17 18:00 北北東 4 10km以上 13 82 1012
17 17:00 4 10km以上 13 82 1011
17 16:00 5 10km以上 13 82 1011
17 15:00 5 10km以上 13 82 1011
17 14:00 6 10km以上 14 82 1011
17 13:00 6 10km以上 15 77 1011
17 12:00 4 10km以上 16 72 1011
17 11:00 2 10km以上 15 82 1011
17 10:00 3 10km以上 14 82 1011
17 09:00 北北東 4 10km以上 14 82 1011
17 08:00 4 10km以上 14 88 1011
17 07:45 北北東 4 10km以上 14 88 1011 弱い霧雨
RJCM 170900Z 02007KT 9999 FEW008 BKN010 BKN015 13/10 Q1012
RJCM 170800Z 01007KT 9999 FEW008 BKN010 BKN015 13/10 Q1011
RJCM 170700Z 01009KT 9999 FEW008 BKN010 BKN015 13/10 Q1011
RJCM 170600Z 01009KT 9999 FEW006 SCT008 BKN010 13/10 Q1011
RJCM 170500Z 36011KT 9999 FEW005 BKN010 BKN011 14/11 Q1011
RJCM 170400Z 36011KT 9999 FEW004 SCT010 BKN015 15/11 Q1011
RJCM 170300Z 01007KT 300V040 9999 FEW006 SCT010 BKN015 16/11 Q1011
RJCM 170200Z 35004KT 320V030 9999 FEW006 SCT008 BKN010 15/12 Q1011
RJCM 170100Z 01006KT 340V040 9999 FEW005 SCT007 BKN010 14/11 Q1011
RJCM 170000Z 02007KT 9999 FEW003 SCT007 BKN010 14/11 Q1011
RJCM 162300Z 01008KT 9999 FEW004 SCT008 BKN010 14/12 Q1011
RJCM 162245Z 03008KT 9999 -DZ FEW003 BKN010 BKN015 14/12 Q1011 RMK 1ST003 5ST010 7ST015 A2987